createdAt,value
2023-05-06T00:01:17.019Z,7.78
2023-05-06T00:04:03.562Z,8.75
2023-05-06T00:06:49.896Z,9.35
2023-05-06T00:09:36.202Z,8.00
2023-05-06T00:12:22.508Z,8.57
2023-05-06T00:15:09.659Z,8.43
2023-05-06T00:17:56.899Z,8.90
2023-05-06T00:20:43.233Z,8.40
2023-05-06T00:23:29.582Z,7.72
2023-05-06T00:26:16.256Z,8.98
2023-05-06T00:29:02.349Z,8.77
2023-05-06T00:31:48.923Z,9.85
2023-05-06T00:34:35.361Z,9.70
2023-05-06T00:37:21.705Z,9.27
2023-05-06T00:40:08.873Z,10.30
2023-05-06T00:42:55.793Z,8.40
2023-05-06T00:45:42.212Z,9.43
2023-05-06T00:48:28.907Z,8.57
2023-05-06T00:51:15.067Z,9.93
2023-05-06T00:54:02.206Z,9.05
2023-05-06T00:56:48.394Z,8.97
2023-05-06T00:59:34.727Z,8.95
2023-05-06T01:02:21.223Z,9.68
2023-05-06T01:05:09.145Z,10.35
2023-05-06T01:08:07.109Z,8.60
2023-05-06T01:10:57.677Z,9.27
2023-05-06T01:14:02.681Z,9.65
2023-05-06T01:16:54.754Z,10.82
2023-05-06T01:19:59.407Z,10.63
2023-05-06T01:22:45.963Z,9.52
2023-05-06T01:25:33.811Z,8.80
2023-05-06T01:28:20.884Z,11.55
2023-05-06T01:31:10.885Z,11.00
2023-05-06T01:34:06.275Z,10.40
2023-05-06T01:36:55.381Z,10.75
2023-05-06T01:39:42.072Z,9.90
2023-05-06T01:42:32.417Z,11.02
2023-05-06T01:45:20.057Z,10.68
2023-05-06T01:48:06.924Z,10.60
2023-05-06T01:50:53.765Z,10.82
2023-05-06T01:53:40.112Z,10.68
2023-05-06T01:56:27.081Z,11.57
2023-05-06T01:59:13.548Z,8.90
2023-05-06T02:01:59.986Z,10.50
2023-05-06T02:04:46.881Z,9.03
2023-05-06T02:07:33.256Z,8.90
2023-05-06T02:10:19.691Z,10.45
2023-05-06T02:13:06.710Z,8.98
2023-05-06T02:15:54.552Z,8.98
2023-05-06T02:18:41.563Z,11.30
2023-05-06T02:21:28.400Z,9.15
2023-05-06T02:24:15.169Z,9.27
2023-05-06T02:27:02.356Z,9.32
2023-05-06T02:29:48.837Z,9.55
2023-05-06T02:32:36.230Z,8.80
2023-05-06T02:35:23.258Z,8.65
2023-05-06T02:38:09.322Z,9.35
2023-05-06T02:40:55.720Z,11.10
2023-05-06T02:43:42.102Z,9.55
2023-05-06T02:46:28.561Z,9.73
2023-05-06T02:49:15.213Z,10.10
2023-05-06T02:52:01.625Z,8.95
2023-05-06T02:54:48.019Z,10.20
2023-05-06T02:57:34.448Z,9.67
2023-05-06T03:00:21.102Z,9.53
2023-05-06T03:03:09.880Z,8.88
2023-05-06T03:05:56.391Z,10.35
2023-05-06T03:08:43.217Z,9.73
2023-05-06T03:11:31.565Z,8.55
2023-05-06T03:14:18.848Z,9.75
2023-05-06T03:17:05.425Z,10.70
2023-05-06T03:19:53.747Z,9.45
2023-05-06T03:22:42.339Z,9.37
2023-05-06T03:25:29.230Z,10.35
2023-05-06T03:28:16.274Z,11.50
2023-05-06T03:31:04.570Z,11.67
2023-05-06T03:33:52.268Z,10.65
2023-05-06T03:36:39.803Z,11.23
2023-05-06T03:39:26.121Z,10.13
2023-05-06T03:42:12.805Z,10.87
2023-05-06T03:44:59.179Z,11.33
2023-05-06T03:47:48.120Z,11.45
2023-05-06T03:50:35.105Z,13.30
2023-05-06T03:53:22.140Z,11.23
2023-05-06T03:56:09.340Z,9.75
2023-05-06T03:58:56.164Z,11.27
2023-05-06T04:01:42.659Z,11.00
2023-05-06T04:04:29.947Z,11.77
2023-05-06T04:07:16.243Z,10.63
2023-05-06T04:10:03.824Z,12.73
2023-05-06T04:12:50.705Z,11.07
2023-05-06T04:15:38.704Z,12.85
2023-05-06T04:18:25.809Z,11.75
2023-05-06T04:21:12.917Z,11.85
2023-05-06T04:23:59.257Z,11.88
2023-05-06T04:26:46.548Z,11.88
2023-05-06T04:29:33.083Z,11.45
2023-05-06T04:32:20.928Z,9.75
2023-05-06T04:35:07.696Z,11.05
2023-05-06T04:37:56.647Z,10.82
2023-05-06T04:40:42.945Z,10.80
2023-05-06T04:43:29.921Z,12.20
2023-05-06T04:46:17.368Z,11.20
2023-05-06T04:49:04.785Z,13.48
2023-05-06T04:51:50.937Z,12.15
2023-05-06T04:54:37.802Z,12.27
2023-05-06T04:57:24.268Z,12.07
2023-05-06T05:00:12.501Z,13.82
2023-05-06T05:02:59.036Z,11.32
2023-05-06T05:05:45.905Z,10.98
2023-05-06T05:08:32.946Z,11.07
2023-05-06T05:11:20.232Z,12.35
2023-05-06T05:14:06.484Z,9.07
2023-05-06T05:16:53.135Z,9.60
2023-05-06T05:19:39.247Z,11.00
2023-05-06T05:22:26.868Z,12.48
2023-05-06T05:25:14.292Z,11.75
2023-05-06T05:28:01.592Z,12.95
2023-05-06T05:30:48.038Z,12.50
2023-05-06T05:33:34.490Z,11.77
2023-05-06T05:36:21.422Z,12.95
2023-05-06T05:39:09.295Z,13.05
2023-05-06T05:41:56.188Z,12.93
2023-05-06T05:44:42.991Z,13.75
2023-05-06T05:47:29.356Z,12.97
2023-05-06T05:50:16.392Z,12.85
2023-05-06T05:53:02.878Z,14.70
2023-05-06T05:55:49.636Z,12.27
2023-05-06T05:58:37.093Z,14.95
2023-05-06T06:01:23.940Z,12.05
2023-05-06T06:04:10.216Z,12.82
2023-05-06T06:06:59.192Z,12.63
2023-05-06T06:09:47.031Z,13.57
2023-05-06T06:12:33.607Z,12.77
2023-05-06T06:15:21.816Z,14.20
2023-05-06T06:18:09.072Z,12.68
2023-05-06T06:20:56.225Z,14.15
2023-05-06T06:23:43.153Z,12.37
2023-05-06T06:26:29.945Z,13.15
2023-05-06T06:29:16.459Z,13.68
2023-05-06T06:32:03.964Z,13.63
2023-05-06T06:34:50.112Z,12.33
2023-05-06T06:37:36.441Z,12.85
2023-05-06T06:40:22.931Z,14.13
2023-05-06T06:43:09.363Z,11.90
2023-05-06T06:49:04.202Z,13.97
2023-05-06T06:51:51.655Z,14.00
2023-05-06T06:54:38.828Z,12.88
2023-05-06T06:57:25.093Z,12.70
2023-05-06T07:00:11.934Z,13.53
2023-05-06T07:02:58.485Z,13.18
2023-05-06T07:05:45.564Z,12.17
2023-05-06T07:08:31.490Z,13.98
2023-05-06T07:11:17.834Z,13.98
2023-05-06T07:14:04.318Z,12.63
2023-05-06T07:16:51.602Z,13.40
2023-05-06T07:19:38.082Z,13.30
2023-05-06T07:22:24.521Z,14.27
2023-05-06T07:25:11.288Z,12.57
2023-05-06T07:27:58.161Z,15.63
2023-05-06T07:30:45.023Z,13.65
2023-05-06T07:33:31.473Z,15.50
2023-05-06T07:36:17.778Z,13.70
2023-05-06T07:39:04.533Z,13.40
2023-05-06T07:41:51.612Z,13.27
2023-05-06T07:44:38.286Z,12.63
2023-05-06T07:47:31.622Z,15.27
2023-05-06T07:50:18.356Z,14.15
2023-05-06T07:53:04.803Z,11.90
2023-05-06T07:55:52.493Z,14.80
2023-05-06T07:58:38.619Z,13.60
2023-05-06T08:01:26.004Z,15.75
2023-05-06T08:04:13.263Z,13.30
2023-05-06T08:06:59.652Z,12.50
2023-05-06T08:09:46.455Z,16.20
2023-05-06T08:12:32.624Z,15.05
2023-05-06T08:15:19.280Z,15.38
2023-05-06T08:18:21.011Z,15.70
2023-05-06T08:21:08.857Z,16.67
2023-05-06T08:23:55.955Z,17.03
2023-05-06T08:26:42.458Z,16.35
2023-05-06T08:29:29.382Z,19.50
2023-05-06T08:32:15.909Z,16.75
2023-05-06T08:35:02.328Z,18.02
2023-05-06T08:37:48.672Z,14.73
2023-05-06T08:40:40.926Z,14.40
2023-05-06T08:43:27.813Z,14.10
2023-05-06T08:46:14.736Z,13.23
2023-05-06T08:49:01.032Z,14.45
2023-05-06T08:51:49.448Z,12.03
2023-05-06T08:54:36.590Z,13.57
2023-05-06T08:57:22.752Z,11.73
2023-05-06T09:00:11.208Z,13.70
2023-05-06T09:02:57.722Z,12.25
2023-05-06T09:05:44.225Z,13.52
2023-05-06T09:08:30.783Z,13.68
2023-05-06T09:11:29.785Z,12.43
2023-05-06T09:14:17.401Z,11.20
2023-05-06T09:17:04.106Z,12.43
2023-05-06T09:19:54.663Z,13.15
2023-05-06T09:22:41.580Z,11.20
2023-05-06T09:25:28.649Z,12.93
2023-05-06T09:28:16.873Z,11.07
2023-05-06T09:31:03.789Z,11.35
2023-05-06T09:33:51.190Z,10.23
2023-05-06T09:36:37.454Z,10.82
2023-05-06T09:39:27.583Z,11.23
2023-05-06T09:42:14.326Z,9.85
2023-05-06T09:45:02.125Z,10.80
2023-05-06T09:47:53.865Z,8.55
2023-05-06T09:50:41.333Z,8.73
2023-05-06T09:53:28.102Z,10.82
2023-05-06T09:56:15.606Z,8.93
2023-05-06T09:59:04.292Z,9.33
2023-05-06T10:01:53.248Z,7.73
2023-05-06T10:04:44.686Z,7.23
2023-05-06T10:07:32.321Z,7.20
2023-05-06T10:10:18.671Z,4.90
2023-05-06T10:13:04.953Z,7.28
2023-05-06T10:15:51.933Z,7.82
2023-05-06T10:18:39.031Z,7.70
2023-05-06T10:21:28.090Z,7.72
2023-05-06T10:24:16.430Z,8.40
2023-05-06T10:27:05.078Z,8.15
2023-05-06T10:29:53.815Z,8.43
2023-05-06T10:32:43.437Z,7.60
2023-05-06T10:35:41.477Z,6.65
2023-05-06T10:38:36.531Z,8.43
2023-05-06T10:41:26.145Z,10.57
2023-05-06T10:44:12.985Z,5.45
2023-05-06T10:47:00.801Z,6.57
2023-05-06T10:50:22.913Z,7.87
2023-05-06T10:53:08.936Z,6.70
2023-05-06T10:56:09.023Z,7.35
2023-05-06T10:58:58.138Z,8.20
2023-05-06T11:01:45.079Z,6.75
2023-05-06T11:04:31.664Z,7.93
2023-05-06T11:07:24.576Z,5.60
2023-05-06T11:10:11.448Z,8.30
2023-05-06T11:12:58.079Z,5.93
2023-05-06T11:15:46.310Z,7.35
2023-05-06T11:18:36.888Z,7.28
2023-05-06T11:21:32.378Z,6.70
2023-05-06T11:24:29.906Z,6.78
2023-05-06T11:27:20.820Z,6.33
2023-05-06T11:30:13.738Z,5.93
2023-05-06T11:33:05.497Z,6.62
2023-05-06T11:35:53.188Z,6.30
2023-05-06T11:38:51.320Z,8.13
2023-05-06T11:41:41.422Z,8.77
2023-05-06T11:44:29.725Z,7.43
2023-05-06T11:47:16.237Z,7.60
2023-05-06T11:50:07.454Z,8.00
2023-05-06T11:52:53.824Z,9.60
2023-05-06T11:55:40.132Z,8.60
2023-05-06T11:58:28.089Z,8.90
2023-05-06T12:01:14.532Z,8.27
2023-05-06T12:04:02.251Z,6.93
2023-05-06T12:06:48.446Z,7.55
2023-05-06T12:09:36.150Z,12.52
2023-05-06T12:12:23.326Z,7.87
2023-05-06T12:15:10.963Z,9.77
2023-05-06T12:17:57.329Z,7.60
2023-05-06T12:20:44.424Z,6.82
2023-05-06T12:23:31.154Z,6.22
2023-05-06T12:26:19.216Z,6.65
2023-05-06T12:29:07.900Z,6.70
2023-05-06T12:32:08.313Z,5.87
2023-05-06T12:34:54.645Z,6.15
2023-05-06T12:37:41.288Z,7.12
2023-05-06T12:40:27.532Z,7.30
2023-05-06T12:43:14.086Z,7.07
2023-05-06T12:46:07.536Z,6.87
2023-05-06T12:48:58.352Z,6.68
2023-05-06T12:51:47.131Z,7.50
2023-05-06T12:54:34.123Z,6.30
2023-05-06T12:57:20.603Z,6.97
2023-05-06T13:00:07.985Z,5.73
2023-05-06T13:02:54.206Z,7.00
2023-05-06T13:05:40.729Z,6.72
2023-05-06T13:08:27.082Z,6.57
2023-05-06T13:11:13.387Z,6.67
2023-05-06T13:13:59.886Z,6.20
2023-05-06T13:16:46.680Z,5.70
2023-05-06T13:19:33.486Z,7.18
2023-05-06T13:22:20.223Z,7.60
2023-05-06T13:25:06.833Z,7.93
2023-05-06T13:27:53.469Z,6.18
2023-05-06T13:30:39.804Z,9.07
2023-05-06T13:33:26.345Z,10.95
2023-05-06T13:36:12.632Z,10.52
2023-05-06T13:38:59.036Z,12.18
2023-05-06T13:41:50.129Z,9.63
2023-05-06T13:44:36.455Z,11.43
2023-05-06T13:47:23.196Z,7.85
2023-05-06T13:50:10.266Z,8.40
2023-05-06T13:52:56.801Z,8.68
2023-05-06T13:55:43.295Z,10.18
2023-05-06T13:58:29.614Z,9.80
2023-05-06T14:01:15.986Z,9.93
2023-05-06T14:04:02.814Z,10.02
2023-05-06T14:06:49.216Z,11.05
2023-05-06T14:09:35.808Z,9.67
2023-05-06T14:12:23.028Z,9.52
2023-05-06T14:15:10.228Z,12.35
2023-05-06T14:17:57.749Z,10.98
2023-05-06T14:20:44.311Z,9.75
2023-05-06T14:23:30.752Z,10.02
2023-05-06T14:26:17.117Z,10.88
2023-05-06T14:29:03.835Z,10.27
2023-05-06T14:31:50.370Z,9.47
2023-05-06T14:34:36.982Z,9.15
2023-05-06T14:37:23.475Z,8.87
2023-05-06T14:40:10.487Z,8.68
2023-05-06T14:42:57.123Z,9.23
2023-05-06T14:45:43.116Z,11.77
2023-05-06T14:48:29.472Z,9.68
2023-05-06T14:51:16.761Z,11.10
2023-05-06T14:54:05.818Z,14.30
2023-05-06T14:56:52.811Z,9.65
2023-05-06T14:59:39.253Z,8.80
2023-05-06T15:02:25.712Z,10.07
2023-05-06T15:05:13.511Z,12.30
2023-05-06T15:08:00.180Z,9.40
2023-05-06T15:10:49.109Z,11.10
2023-05-06T15:13:35.525Z,10.57
2023-05-06T15:16:22.424Z,8.90
2023-05-06T15:19:08.702Z,10.98
2023-05-06T15:21:55.138Z,9.45
2023-05-06T15:24:41.766Z,11.73
2023-05-06T15:27:28.198Z,9.88
2023-05-06T15:30:14.740Z,10.43
2023-05-06T15:33:01.817Z,10.05
2023-05-06T15:35:48.336Z,8.90
2023-05-06T15:38:53.149Z,9.27
2023-05-06T15:41:39.201Z,9.98
2023-05-06T15:44:27.003Z,10.40
2023-05-06T15:47:13.181Z,10.32
2023-05-06T15:49:59.740Z,10.68
2023-05-06T15:52:46.241Z,12.60
2023-05-06T15:55:42.368Z,10.13
2023-05-06T15:58:31.214Z,10.52
2023-05-06T16:01:22.095Z,10.07
2023-05-06T16:04:16.512Z,10.55
2023-05-06T16:07:02.690Z,9.40
2023-05-06T16:09:49.836Z,9.45
2023-05-06T16:12:36.114Z,8.68
2023-05-06T16:15:22.494Z,9.27
2023-05-06T16:18:09.156Z,10.75
2023-05-06T16:20:55.798Z,10.20
2023-05-06T16:23:41.934Z,9.40
2023-05-06T16:26:28.210Z,7.95
2023-05-06T16:29:18.970Z,11.67
2023-05-06T16:32:06.015Z,9.90
2023-05-06T16:34:52.161Z,11.27
2023-05-06T16:37:38.648Z,8.85
2023-05-06T16:40:25.728Z,10.73
2023-05-06T16:43:12.247Z,10.23
2023-05-06T16:45:58.446Z,14.20
2023-05-06T16:48:45.051Z,12.48
2023-05-06T16:51:32.117Z,11.25
2023-05-06T16:54:18.842Z,11.77
2023-05-06T16:57:05.775Z,12.82
2023-05-06T16:59:52.068Z,10.70
2023-05-06T17:02:39.515Z,11.85
2023-05-06T17:05:28.046Z,12.60
2023-05-06T17:08:16.097Z,15.43
2023-05-06T17:11:05.373Z,13.77
2023-05-06T17:13:53.060Z,14.45
2023-05-06T17:16:40.404Z,14.25
2023-05-06T17:19:26.416Z,13.83
2023-05-06T17:22:12.788Z,12.02
2023-05-06T17:24:59.334Z,13.60
2023-05-06T17:27:48.954Z,12.37
2023-05-06T17:30:35.148Z,11.30
2023-05-06T17:33:22.594Z,11.12
2023-05-06T17:36:09.051Z,10.57
2023-05-06T17:39:05.737Z,10.60
2023-05-06T17:41:52.891Z,11.65
2023-05-06T17:44:42.620Z,11.93
2023-05-06T17:47:30.735Z,11.43
2023-05-06T17:50:17.516Z,10.32
2023-05-06T17:53:03.943Z,13.20
2023-05-06T17:55:50.585Z,13.62
2023-05-06T17:58:36.703Z,11.20
2023-05-06T18:01:23.138Z,13.23
2023-05-06T18:04:09.551Z,12.07
2023-05-06T18:06:56.024Z,13.07
2023-05-06T18:09:42.521Z,13.17
2023-05-06T18:12:29.026Z,13.85
2023-05-06T18:15:15.867Z,13.15
2023-05-06T18:18:02.282Z,12.30
2023-05-06T18:20:48.748Z,13.43
2023-05-06T18:23:35.336Z,13.02
2023-05-06T18:26:39.805Z,12.23
2023-05-06T18:29:30.361Z,11.70
2023-05-06T18:32:17.963Z,13.32
2023-05-06T18:35:04.584Z,11.80
2023-05-06T18:37:51.244Z,13.20
2023-05-06T18:40:37.934Z,14.23
2023-05-06T18:43:24.538Z,16.08
2023-05-06T18:46:11.753Z,13.38
2023-05-06T18:48:59.140Z,13.90
2023-05-06T18:51:45.325Z,14.07
2023-05-06T18:54:31.786Z,15.55
2023-05-06T18:57:19.575Z,14.18
2023-05-06T19:00:07.260Z,13.55
2023-05-06T19:02:53.532Z,14.02
2023-05-06T19:05:39.899Z,13.38
2023-05-06T19:08:26.286Z,13.60
2023-05-06T19:11:16.385Z,14.13
2023-05-06T19:14:03.020Z,14.10
2023-05-06T19:16:49.604Z,13.62
2023-05-06T19:19:35.930Z,13.60
2023-05-06T19:22:22.568Z,13.15
2023-05-06T19:25:09.333Z,16.40
2023-05-06T19:27:56.141Z,15.07
2023-05-06T19:30:42.548Z,15.67
2023-05-06T19:33:28.846Z,14.10
2023-05-06T19:36:16.507Z,15.93
2023-05-06T19:39:02.873Z,14.02
2023-05-06T19:41:49.350Z,13.02
2023-05-06T19:44:36.120Z,11.95
2023-05-06T19:47:22.559Z,11.82
2023-05-06T19:50:09.542Z,12.48
2023-05-06T19:52:55.897Z,12.23
2023-05-06T19:55:42.365Z,14.02
2023-05-06T19:58:28.690Z,13.00
2023-05-06T20:01:17.206Z,13.35
2023-05-06T20:04:04.105Z,14.17
2023-05-06T20:06:50.165Z,13.75
2023-05-06T20:09:36.758Z,13.65
2023-05-06T20:12:23.702Z,12.02
2023-05-06T20:15:10.521Z,14.95
2023-05-06T20:17:56.820Z,13.02
2023-05-06T20:20:43.470Z,13.30
2023-05-06T20:23:30.764Z,14.95
2023-05-06T20:26:17.341Z,14.53
2023-05-06T20:29:03.906Z,13.32
2023-05-06T20:31:50.800Z,12.67
2023-05-06T20:34:36.976Z,13.62
2023-05-06T20:37:23.532Z,13.07
2023-05-06T20:40:10.558Z,13.82
2023-05-06T20:42:57.483Z,14.10
2023-05-06T20:45:43.398Z,11.45
2023-05-06T20:48:31.301Z,12.80
2023-05-06T20:51:17.811Z,13.95
2023-05-06T20:54:04.690Z,12.50
2023-05-06T20:56:50.817Z,13.20
2023-05-06T20:59:37.698Z,13.23
2023-05-06T21:02:24.270Z,13.55
2023-05-06T21:05:13.502Z,12.73
